createdAt,value
2023-03-05T00:01:51.531Z,2.60
2023-03-05T00:04:53.414Z,2.74
2023-03-05T00:07:55.168Z,2.89
2023-03-05T00:11:02.273Z,3.12
2023-03-05T00:14:04.870Z,3.02
2023-03-05T00:17:07.159Z,3.06
2023-03-05T00:20:09.519Z,3.27
2023-03-05T00:23:11.310Z,3.24
2023-03-05T00:26:13.216Z,3.35
2023-03-05T00:29:24.429Z,3.13
2023-03-05T00:32:26.429Z,3.36
2023-03-05T00:35:28.686Z,3.37
2023-03-05T00:38:30.525Z,2.93
2023-03-05T00:41:32.994Z,3.34
2023-03-05T00:44:34.806Z,3.33
2023-03-05T00:47:36.911Z,3.11
2023-03-05T00:50:39.338Z,3.10
2023-03-05T00:53:41.048Z,3.23
2023-03-05T00:56:43.129Z,3.18
2023-03-05T00:59:45.039Z,3.01
2023-03-05T01:02:46.837Z,3.05
2023-03-05T01:05:48.568Z,3.25
2023-03-05T01:08:50.345Z,3.30
2023-03-05T01:11:52.875Z,3.34
2023-03-05T01:14:54.778Z,3.28
2023-03-05T01:17:56.645Z,3.20
2023-03-05T01:20:58.493Z,3.09
2023-03-05T01:24:00.281Z,3.28
2023-03-05T01:27:02.095Z,3.05
2023-03-05T01:30:05.044Z,3.12
2023-03-05T01:33:06.944Z,3.16
2023-03-05T01:36:13.439Z,3.14
2023-03-05T01:39:15.529Z,3.12
2023-03-05T01:42:19.482Z,3.00
2023-03-05T01:45:21.360Z,3.02
2023-03-05T01:48:23.306Z,3.13
2023-03-05T01:51:29.188Z,3.09
2023-03-05T01:54:38.420Z,2.80
2023-03-05T01:57:48.647Z,3.13
2023-03-05T02:00:53.769Z,3.15
2023-03-05T02:03:55.895Z,2.89
2023-03-05T02:06:59.135Z,3.09
2023-03-05T02:10:01.315Z,2.99
2023-03-05T02:13:06.986Z,3.02
2023-03-05T02:16:08.912Z,3.05
2023-03-05T02:19:12.490Z,3.07
2023-03-05T02:22:15.545Z,3.09
2023-03-05T02:25:23.875Z,3.07
2023-03-05T02:28:43.365Z,3.06
2023-03-05T02:31:45.144Z,3.02
2023-03-05T02:34:47.628Z,2.90
2023-03-05T02:37:50.926Z,3.01
2023-03-05T02:40:53.002Z,2.99
2023-03-05T02:43:54.896Z,3.08
2023-03-05T02:46:56.832Z,2.90
2023-03-05T02:49:59.608Z,3.10
2023-03-05T02:53:01.564Z,3.18
2023-03-05T02:56:04.653Z,3.23
2023-03-05T02:59:09.299Z,3.27
2023-03-05T03:02:10.977Z,3.30
2023-03-05T03:05:12.840Z,3.32
2023-03-05T03:08:15.178Z,3.35
2023-03-05T03:11:17.732Z,3.12
2023-03-05T03:14:20.057Z,3.37
2023-03-05T03:17:21.835Z,3.39
2023-03-05T03:20:23.774Z,3.31
2023-03-05T03:23:25.709Z,3.21
2023-03-05T03:26:27.631Z,3.25
2023-03-05T03:29:29.473Z,3.02
2023-03-05T03:32:32.309Z,3.20
2023-03-05T03:35:34.143Z,3.26
2023-03-05T03:38:35.933Z,3.24
2023-03-05T03:41:41.941Z,3.39
2023-03-05T03:44:43.807Z,3.42
2023-03-05T03:47:45.560Z,3.18
2023-03-05T03:50:47.290Z,3.29
2023-03-05T03:53:48.994Z,3.41
2023-03-05T03:56:50.837Z,3.51
2023-03-05T03:59:52.741Z,3.46
2023-03-05T04:02:54.674Z,3.31
2023-03-05T04:05:56.503Z,3.31
2023-03-05T04:08:58.273Z,3.51
2023-03-05T04:11:59.911Z,3.35
2023-03-05T04:15:01.691Z,3.42
2023-03-05T04:18:03.691Z,3.38
2023-03-05T04:21:05.766Z,3.26
2023-03-05T04:24:08.449Z,3.47
2023-03-05T04:27:10.854Z,3.53
2023-03-05T04:30:14.870Z,3.48
2023-03-05T04:33:17.040Z,3.41
2023-03-05T04:36:19.064Z,3.35
2023-03-05T04:39:23.336Z,3.11
2023-03-05T04:42:25.141Z,3.48
2023-03-05T04:45:27.010Z,3.37
2023-03-05T04:48:28.754Z,3.23
2023-03-05T04:51:30.693Z,3.45
2023-03-05T04:54:32.642Z,3.44
2023-03-05T04:57:35.514Z,3.46
2023-03-05T05:00:37.340Z,3.46
2023-03-05T05:03:39.136Z,3.29
2023-03-05T05:06:40.864Z,3.42
2023-03-05T05:09:42.573Z,3.40
2023-03-05T05:12:44.423Z,3.40
2023-03-05T05:15:46.118Z,3.21
2023-03-05T05:18:47.918Z,3.41
2023-03-05T05:21:49.671Z,3.41
2023-03-05T05:24:51.572Z,3.39
2023-03-05T05:27:53.291Z,3.45
2023-03-05T05:30:55.354Z,3.48
2023-03-05T05:33:57.202Z,3.47
2023-03-05T05:36:59.018Z,3.45
2023-03-05T05:40:00.825Z,3.52
2023-03-05T05:43:03.138Z,3.52
2023-03-05T05:46:08.264Z,3.40
2023-03-05T05:49:10.264Z,3.53
2023-03-05T05:52:12.141Z,3.34
2023-03-05T05:55:14.000Z,3.42
2023-03-05T05:58:15.810Z,3.58
2023-03-05T06:01:28.304Z,3.38
2023-03-05T06:04:30.216Z,3.38
2023-03-05T06:07:32.021Z,3.57
2023-03-05T06:10:34.291Z,3.21
2023-03-05T06:13:36.357Z,3.60
2023-03-05T06:16:38.628Z,3.55
2023-03-05T06:19:40.387Z,3.60
2023-03-05T06:22:42.183Z,3.65
2023-03-05T06:25:44.053Z,3.43
2023-03-05T06:28:46.125Z,3.72
2023-03-05T06:31:48.004Z,3.77
2023-03-05T06:34:50.296Z,3.78
2023-03-05T06:37:52.039Z,3.89
2023-03-05T06:40:53.989Z,3.93
2023-03-05T06:43:56.698Z,3.99
2023-03-05T06:46:58.504Z,4.02
2023-03-05T06:50:00.289Z,4.03
2023-03-05T06:53:02.505Z,4.09
2023-03-05T06:56:04.632Z,3.91
2023-03-05T06:59:07.182Z,4.08
2023-03-05T07:02:11.509Z,4.18
2023-03-05T07:05:13.597Z,4.28
2023-03-05T07:08:15.610Z,4.15
2023-03-05T07:11:20.647Z,4.29
2023-03-05T07:14:22.980Z,4.40
2023-03-05T07:17:24.774Z,4.35
2023-03-05T07:20:26.526Z,4.46
2023-03-05T07:23:28.807Z,4.50
2023-03-05T07:26:31.089Z,4.53
2023-03-05T07:29:32.912Z,4.49
2023-03-05T07:32:35.651Z,4.48
2023-03-05T07:35:41.438Z,4.52
2023-03-05T07:38:43.451Z,4.36
2023-03-05T07:41:46.578Z,4.24
2023-03-05T07:44:49.916Z,4.46
2023-03-05T07:47:52.644Z,4.48
2023-03-05T07:51:05.176Z,4.46
2023-03-05T07:54:07.480Z,4.52
2023-03-05T07:57:12.579Z,4.58
2023-03-05T08:00:14.821Z,4.46
2023-03-05T08:03:17.394Z,4.63
2023-03-05T08:06:19.199Z,4.79
2023-03-05T08:09:21.008Z,4.65
2023-03-05T08:12:23.388Z,4.79
2023-03-05T08:15:25.143Z,4.67
2023-03-05T08:18:26.920Z,4.94
2023-03-05T08:21:34.053Z,4.94
2023-03-05T08:24:35.780Z,5.00
2023-03-05T08:27:45.700Z,5.06
2023-03-05T08:30:48.708Z,5.10
2023-03-05T08:33:52.962Z,5.04
2023-03-05T08:36:54.822Z,5.18
2023-03-05T08:39:57.330Z,4.94
2023-03-05T08:43:00.103Z,5.03
2023-03-05T08:46:02.185Z,5.13
2023-03-05T08:49:04.148Z,5.24
2023-03-05T08:52:06.065Z,4.95
2023-03-05T08:55:08.346Z,5.12
2023-03-05T08:58:10.383Z,5.23
2023-03-05T09:01:13.226Z,5.07
2023-03-05T09:04:15.835Z,5.26
2023-03-05T09:07:17.683Z,5.32
2023-03-05T09:10:19.798Z,5.27
2023-03-05T09:13:24.627Z,5.24
2023-03-05T09:16:30.766Z,5.25
2023-03-05T09:19:32.516Z,5.07
2023-03-05T09:22:34.505Z,5.31
2023-03-05T09:25:36.306Z,5.39
2023-03-05T09:28:38.877Z,5.45
2023-03-05T09:31:40.722Z,5.54
2023-03-05T09:34:42.555Z,5.55
2023-03-05T09:37:44.249Z,5.53
2023-03-05T09:40:59.381Z,5.57
2023-03-05T09:44:23.692Z,5.55
2023-03-05T09:47:28.474Z,5.60
2023-03-05T09:50:44.857Z,5.71
2023-03-05T09:53:52.767Z,5.53
2023-03-05T09:56:58.305Z,5.87
2023-03-05T10:00:08.075Z,6.00
2023-03-05T10:03:15.899Z,6.11
2023-03-05T10:06:22.903Z,6.28
2023-03-05T10:09:44.052Z,6.43
2023-03-05T10:12:51.070Z,6.52
2023-03-05T10:16:20.865Z,6.61
2023-03-05T10:19:49.513Z,6.72
2023-03-05T10:23:12.589Z,6.85
2023-03-05T10:26:21.688Z,6.88
2023-03-05T10:29:56.156Z,6.94
2023-03-05T10:33:25.971Z,7.06
2023-03-05T10:36:27.810Z,7.07
2023-03-05T10:39:38.442Z,7.18
2023-03-05T10:42:44.574Z,7.26
2023-03-05T10:45:49.902Z,7.34
2023-03-05T10:49:05.787Z,7.44
2023-03-05T10:52:36.864Z,7.55
2023-03-05T10:55:38.603Z,7.45
2023-03-05T10:58:42.517Z,7.55
2023-03-05T11:02:04.981Z,7.49
2023-03-05T11:05:35.332Z,7.75
2023-03-05T11:08:37.384Z,7.73
2023-03-05T11:11:39.180Z,7.91
2023-03-05T11:14:47.702Z,7.73
2023-03-05T11:18:16.760Z,7.84
2023-03-05T11:21:20.095Z,8.02
2023-03-05T11:24:21.904Z,7.93
2023-03-05T11:27:35.622Z,7.87
2023-03-05T11:30:40.142Z,7.83
2023-03-05T11:33:54.630Z,7.82
2023-03-05T11:36:57.101Z,7.92
2023-03-05T11:40:08.399Z,7.92
2023-03-05T11:43:17.537Z,7.94
2023-03-05T11:46:21.821Z,8.07
2023-03-05T11:49:27.425Z,8.42
2023-03-05T11:52:34.170Z,8.49
2023-03-05T11:55:49.649Z,8.74
2023-03-05T11:59:05.676Z,8.78
2023-03-05T12:02:19.633Z,8.76
2023-03-05T12:05:21.713Z,8.80
2023-03-05T12:08:33.497Z,8.55
2023-03-05T12:11:36.772Z,8.58
2023-03-05T12:14:50.260Z,8.28
2023-03-05T12:18:04.135Z,8.29
2023-03-05T12:21:44.639Z,8.21
2023-03-05T12:24:46.710Z,8.15
2023-03-05T12:27:48.502Z,8.04
2023-03-05T12:30:50.213Z,7.81
2023-03-05T12:33:51.962Z,7.62
2023-03-05T12:36:53.815Z,7.46
2023-03-05T12:40:01.093Z,7.46
2023-03-05T12:43:03.443Z,7.65
2023-03-05T12:46:26.393Z,7.68
2023-03-05T12:49:29.333Z,7.58
2023-03-05T12:52:33.969Z,7.72
2023-03-05T12:55:56.904Z,7.82
2023-03-05T12:59:01.701Z,7.60
2023-03-05T13:02:16.687Z,7.42
2023-03-05T13:05:32.944Z,7.59
2023-03-05T13:08:37.313Z,7.32
2023-03-05T13:11:39.561Z,7.12
2023-03-05T13:14:44.114Z,7.29
2023-03-05T13:17:59.173Z,7.35
2023-03-05T13:21:13.916Z,7.21
2023-03-05T13:24:20.205Z,7.04
2023-03-05T13:27:30.396Z,7.10
2023-03-05T13:30:34.580Z,7.04
2023-03-05T13:33:37.399Z,6.95
2023-03-05T13:36:40.349Z,7.16
2023-03-05T13:39:56.904Z,7.22
2023-03-05T13:43:20.844Z,7.25
2023-03-05T13:46:35.128Z,7.22
2023-03-05T13:49:37.077Z,7.28
2023-03-05T13:52:39.146Z,7.16
2023-03-05T13:55:41.385Z,7.21
2023-03-05T13:58:53.452Z,7.17
2023-03-05T14:02:00.444Z,7.13
2023-03-05T14:05:02.402Z,7.11
2023-03-05T14:08:04.522Z,7.01
2023-03-05T14:11:17.618Z,6.83
2023-03-05T14:14:20.578Z,6.89
2023-03-05T14:17:27.871Z,6.72
2023-03-05T14:20:31.746Z,6.61
2023-03-05T14:23:36.312Z,6.58
2023-03-05T14:26:46.758Z,6.58
2023-03-05T14:29:48.551Z,6.54
2023-03-05T14:32:53.129Z,6.53
2023-03-05T14:35:56.009Z,6.44
2023-03-05T14:38:58.376Z,6.21
2023-03-05T14:42:26.058Z,6.47
2023-03-05T14:45:39.061Z,6.25
2023-03-05T14:48:40.970Z,6.46
2023-03-05T14:51:45.564Z,6.48
2023-03-05T14:54:48.456Z,6.42
2023-03-05T14:57:51.751Z,6.31
2023-03-05T15:00:55.301Z,6.13
2023-03-05T15:03:57.196Z,6.21
2023-03-05T15:06:58.914Z,6.23
2023-03-05T15:10:00.709Z,6.13
2023-03-05T15:13:02.624Z,6.02
2023-03-05T15:16:06.292Z,5.95
2023-03-05T15:19:12.132Z,5.85
2023-03-05T15:22:15.342Z,5.55
2023-03-05T15:25:19.958Z,5.56
2023-03-05T15:28:21.744Z,5.49
2023-03-05T15:31:24.814Z,5.40
2023-03-05T15:34:31.034Z,5.29
2023-03-05T15:37:32.866Z,4.95
2023-03-05T15:40:35.432Z,5.15
2023-03-05T15:43:37.577Z,5.02
2023-03-05T15:46:39.638Z,4.91
2023-03-05T15:49:41.422Z,5.00
2023-03-05T15:52:43.147Z,4.98
2023-03-05T15:55:46.180Z,4.81
2023-03-05T15:58:50.734Z,4.82
2023-03-05T16:01:52.519Z,4.87
2023-03-05T16:04:54.423Z,4.85
2023-03-05T16:07:56.608Z,4.80
2023-03-05T16:10:58.581Z,4.64
2023-03-05T16:14:07.287Z,4.60
2023-03-05T16:17:09.825Z,4.60
2023-03-05T16:20:12.608Z,4.51
2023-03-05T16:23:14.402Z,4.36
2023-03-05T16:26:16.416Z,4.50
2023-03-05T16:29:18.393Z,4.44
2023-03-05T16:32:20.720Z,4.37
2023-03-05T16:35:22.761Z,4.38
2023-03-05T16:38:24.503Z,4.32
2023-03-05T16:41:26.821Z,4.27
2023-03-05T16:44:28.657Z,4.21
2023-03-05T16:47:30.578Z,4.13
2023-03-05T16:50:32.316Z,4.05
2023-03-05T16:53:34.245Z,4.09
2023-03-05T16:56:36.189Z,4.07
2023-03-05T16:59:38.340Z,3.94
2023-03-05T17:02:40.024Z,4.12
2023-03-05T17:05:41.893Z,4.14
2023-03-05T17:08:44.692Z,4.16
2023-03-05T17:11:46.552Z,4.18
2023-03-05T17:14:48.381Z,4.14
2023-03-05T17:17:50.615Z,4.13
2023-03-05T17:20:53.226Z,3.98
2023-03-05T17:23:55.165Z,4.13
2023-03-05T17:26:56.884Z,4.17
2023-03-05T17:29:58.730Z,4.11
2023-03-05T17:33:00.571Z,4.00
2023-03-05T17:36:03.618Z,4.04
2023-03-05T17:39:06.071Z,3.74
2023-03-05T17:42:07.844Z,3.91
2023-03-05T17:45:10.047Z,3.87
2023-03-05T17:48:12.941Z,3.81
2023-03-05T17:51:16.832Z,3.75
2023-03-05T17:54:18.780Z,3.63
2023-03-05T17:57:23.565Z,3.72
2023-03-05T18:00:29.074Z,3.75
2023-03-05T18:03:31.355Z,3.80
2023-03-05T18:06:33.666Z,3.76
2023-03-05T18:09:35.724Z,3.80
2023-03-05T18:12:37.765Z,3.81
2023-03-05T18:15:47.413Z,3.80
2023-03-05T18:18:49.450Z,3.70
2023-03-05T18:21:51.956Z,3.67
2023-03-05T18:24:58.108Z,3.59
2023-03-05T18:28:11.221Z,3.65
2023-03-05T18:31:13.317Z,3.56
2023-03-05T18:34:15.234Z,3.55
2023-03-05T18:37:17.118Z,3.61
2023-03-05T18:40:22.449Z,3.65
2023-03-05T18:43:24.754Z,3.72
2023-03-05T18:46:26.861Z,3.80
2023-03-05T18:49:29.700Z,3.66
2023-03-05T18:52:37.601Z,3.84
2023-03-05T18:55:42.844Z,3.76
2023-03-05T18:58:45.517Z,3.90
2023-03-05T19:01:47.496Z,3.87
2023-03-05T19:04:49.413Z,3.84
2023-03-05T19:07:51.255Z,3.65
2023-03-05T19:10:53.391Z,3.70
2023-03-05T19:13:57.092Z,3.77
2023-03-05T19:16:59.005Z,3.73
2023-03-05T19:20:00.789Z,3.68
2023-03-05T19:23:02.771Z,3.58
2023-03-05T19:26:10.085Z,3.65
2023-03-05T19:29:12.498Z,3.73
2023-03-05T19:32:17.563Z,3.73
2023-03-05T19:35:19.825Z,3.79
2023-03-05T19:38:21.775Z,3.62
2023-03-05T19:41:23.798Z,3.74
2023-03-05T19:44:26.442Z,3.71
2023-03-05T19:47:28.443Z,3.68
2023-03-05T19:50:32.851Z,3.74
2023-03-05T19:53:35.297Z,3.72
2023-03-05T19:56:38.667Z,3.75
2023-03-05T19:59:40.739Z,3.62
2023-03-05T20:02:42.509Z,3.57
2023-03-05T20:05:44.565Z,3.68
2023-03-05T20:08:46.999Z,3.75
2023-03-05T20:11:49.389Z,3.69
2023-03-05T20:14:51.247Z,3.73
2023-03-05T20:17:53.188Z,3.73
2023-03-05T20:20:58.840Z,3.49
2023-03-05T20:24:04.773Z,3.77
2023-03-05T20:27:07.254Z,3.77
2023-03-05T20:30:12.496Z,3.75
2023-03-05T20:33:19.809Z,3.54
2023-03-05T20:36:22.339Z,3.79
2023-03-05T20:39:24.435Z,3.75
2023-03-05T20:42:26.260Z,3.74
2023-03-05T20:45:28.237Z,3.63
2023-03-05T20:48:33.738Z,3.65
2023-03-05T20:51:38.058Z,3.70
2023-03-05T20:54:39.919Z,3.67
2023-03-05T20:57:44.128Z,3.63
2023-03-05T21:00:46.147Z,3.63
2023-03-05T21:03:48.044Z,3.69
2023-03-05T21:06:54.282Z,3.72
2023-03-05T21:09:55.979Z,3.57
2023-03-05T21:13:00.369Z,3.74
2023-03-05T21:16:09.997Z,3.66
2023-03-05T21:19:11.913Z,3.72
2023-03-05T21:22:13.629Z,3.70
2023-03-05T21:25:24.831Z,3.62
2023-03-05T21:28:26.730Z,3.64
2023-03-05T21:31:28.571Z,3.61
2023-03-05T21:34:30.381Z,3.53
2023-03-05T21:37:32.231Z,3.52
2023-03-05T21:40:36.384Z,3.69
2023-03-05T21:43:38.307Z,3.65
2023-03-05T21:46:40.282Z,3.71
2023-03-05T21:49:42.134Z,3.61
2023-03-05T21:52:43.878Z,3.66
2023-03-05T21:56:21.084Z,3.62
2023-03-05T21:59:22.949Z,3.64
2023-03-05T22:02:25.756Z,3.65
2023-03-05T22:05:27.480Z,3.67
2023-03-05T22:08:30.110Z,3.68
2023-03-05T22:11:31.957Z,3.72
2023-03-05T22:14:33.728Z,3.73
2023-03-05T22:17:35.665Z,3.49
2023-03-05T22:20:37.438Z,3.72
2023-03-05T22:23:39.105Z,3.69
2023-03-05T22:26:41.744Z,3.50
2023-03-05T22:29:43.559Z,3.58
2023-03-05T22:32:46.448Z,3.46
2023-03-05T22:35:48.253Z,3.67
2023-03-05T22:38:50.282Z,3.61
2023-03-05T22:41:52.088Z,3.57
2023-03-05T22:44:57.915Z,3.63
2023-03-05T22:47:59.957Z,3.63
2023-03-05T22:51:01.698Z,3.45
2023-03-05T22:54:03.559Z,3.53
2023-03-05T22:57:05.628Z,3.55
2023-03-05T23:00:13.529Z,3.51
2023-03-05T23:03:15.885Z,3.57
2023-03-05T23:06:17.605Z,3.51
2023-03-05T23:09:19.428Z,3.53
2023-03-05T23:12:21.756Z,3.51
2023-03-05T23:15:29.627Z,3.35
2023-03-05T23:18:31.589Z,3.46
2023-03-05T23:21:33.248Z,3.51
2023-03-05T23:24:35.264Z,3.52
2023-03-05T23:27:36.995Z,3.47
2023-03-05T23:30:39.561Z,3.39
2023-03-05T23:33:41.348Z,3.30
2023-03-05T23:36:43.000Z,3.35
2023-03-05T23:39:44.912Z,3.34
2023-03-05T23:42:46.742Z,3.05
2023-03-05T23:45:49.335Z,3.11
2023-03-05T23:48:51.107Z,3.26
2023-03-05T23:51:53.440Z,3.21
2023-03-05T23:54:55.464Z,3.28
2023-03-05T23:57:57.168Z,3.24
